sensor_id;sensor_type;location;lat;lon;timestamp;temperature;humidity
12460;DHT22;6295;49.452;8.466;2024-03-07T09:14:35;7.20;99.90
12460;DHT22;6295;49.452;8.466;2024-03-07T09:18:40;7.30;99.90
12460;DHT22;6295;49.452;8.466;2024-03-07T09:22:43;7.40;99.90
12460;DHT22;6295;49.452;8.466;2024-03-07T09:26:50;7.40;99.90
12460;DHT22;6295;49.452;8.466;2024-03-07T09:30:59;7.50;99.90
12460;DHT22;6295;49.452;8.466;2024-03-07T09:35:04;7.50;99.90
12460;DHT22;6295;49.452;8.466;2024-03-07T09:39:09;7.60;99.90
12460;DHT22;6295;49.452;8.466;2024-03-07T09:43:14;7.70;99.90
12460;DHT22;6295;49.452;8.466;2024-03-07T09:47:23;7.70;99.90
12460;DHT22;6295;49.452;8.466;2024-03-07T09:51:26;7.70;99.90
12460;DHT22;6295;49.452;8.466;2024-03-07T09:55:29;7.70;99.90
12460;DHT22;6295;49.452;8.466;2024-03-07T09:59:34;7.80;99.90
12460;DHT22;6295;49.452;8.466;2024-03-07T10:03:41;7.80;99.90
12460;DHT22;6295;49.452;8.466;2024-03-07T10:07:45;7.80;99.90
12460;DHT22;6295;49.452;8.466;2024-03-07T10:11:56;7.70;99.90
12460;DHT22;6295;49.452;8.466;2024-03-07T10:15:58;7.80;99.90
12460;DHT22;6295;49.452;8.466;2024-03-07T10:20:03;7.80;99.90
12460;DHT22;6295;49.452;8.466;2024-03-07T10:24:08;7.80;99.90
12460;DHT22;6295;49.452;8.466;2024-03-07T10:28:11;7.80;99.90
12460;DHT22;6295;49.452;8.466;2024-03-07T10:32:19;7.80;99.90
12460;DHT22;6295;49.452;8.466;2024-03-07T10:36:22;7.80;99.90
12460;DHT22;6295;49.452;8.466;2024-03-07T10:40:25;7.80;99.90
12460;DHT22;6295;49.452;8.466;2024-03-07T10:44:28;7.80;99.90
12460;DHT22;6295;49.452;8.466;2024-03-07T10:48:36;7.90;99.90
12460;DHT22;6295;49.452;8.466;2024-03-07T10:52:49;7.90;99.90
12460;DHT22;6295;49.452;8.466;2024-03-07T10:57:04;8.00;99.90
12460;DHT22;6295;49.452;8.466;2024-03-07T11:01:13;8.10;99.90
12460;DHT22;6295;49.452;8.466;2024-03-07T11:05:20;8.20;99.90
12460;DHT22;6295;49.452;8.466;2024-03-07T11:09:26;8.30;99.90
12460;DHT22;6295;49.452;8.466;2024-03-07T11:13:34;8.40;99.90
12460;DHT22;6295;49.452;8.466;2024-03-07T11:17:38;8.50;99.90
12460;DHT22;6295;49.452;8.466;2024-03-07T11:21:43;8.70;99.90
12460;DHT22;6295;49.452;8.466;2024-03-07T11:25:47;8.70;99.90
12460;DHT22;6295;49.452;8.466;2024-03-07T11:29:50;8.80;99.90
12460;DHT22;6295;49.452;8.466;2024-03-07T11:34:12;8.90;99.90
12460;DHT22;6295;49.452;8.466;2024-03-07T11:38:19;9.00;99.90
12460;DHT22;6295;49.452;8.466;2024-03-07T11:42:26;9.10;99.90
12460;DHT22;6295;49.452;8.466;2024-03-07T11:46:33;9.20;99.90
12460;DHT22;6295;49.452;8.466;2024-03-07T11:50:39;9.20;99.90
12460;DHT22;6295;49.452;8.466;2024-03-07T11:54:44;9.40;99.90
12460;DHT22;6295;49.452;8.466;2024-03-07T11:58:57;9.50;99.90
12460;DHT22;6295;49.452;8.466;2024-03-07T12:03:03;9.60;99.90
12460;DHT22;6295;49.452;8.466;2024-03-07T12:07:10;9.60;99.90
12460;DHT22;6295;49.452;8.466;2024-03-07T12:11:13;9.70;99.90
12460;DHT22;6295;49.452;8.466;2024-03-07T12:15:18;9.80;99.90
12460;DHT22;6295;49.452;8.466;2024-03-07T12:19:24;9.90;99.90
12460;DHT22;6295;49.452;8.466;2024-03-07T12:23:27;10.00;99.90
12460;DHT22;6295;49.452;8.466;2024-03-07T12:27:31;10.00;99.90
12460;DHT22;6295;49.452;8.466;2024-03-07T12:31:36;10.10;99.90
12460;DHT22;6295;49.452;8.466;2024-03-07T12:35:39;10.20;99.90
12460;DHT22;6295;49.452;8.466;2024-03-07T12:39:43;10.30;99.90
12460;DHT22;6295;49.452;8.466;2024-03-07T12:43:48;10.30;99.90
12460;DHT22;6295;49.452;8.466;2024-03-07T12:47:53;10.20;99.90
12460;DHT22;6295;49.452;8.466;2024-03-07T12:51:58;10.20;99.90
12460;DHT22;6295;49.452;8.466;2024-03-07T12:56:02;10.20;99.90
12460;DHT22;6295;49.452;8.466;2024-03-07T13:00:07;10.30;99.90
12460;DHT22;6295;49.452;8.466;2024-03-07T13:04:20;10.30;99.90
12460;DHT22;6295;49.452;8.466;2024-03-07T13:08:22;10.30;99.90
12460;DHT22;6295;49.452;8.466;2024-03-07T13:12:27;10.30;99.90
12460;DHT22;6295;49.452;8.466;2024-03-07T13:16:31;10.30;99.90
12460;DHT22;6295;49.452;8.466;2024-03-07T13:20:35;10.20;99.90
12460;DHT22;6295;49.452;8.466;2024-03-07T13:24:37;10.20;99.90
12460;DHT22;6295;49.452;8.466;2024-03-07T13:28:40;10.10;99.90
12460;DHT22;6295;49.452;8.466;2024-03-07T13:32:42;10.10;99.90
12460;DHT22;6295;49.452;8.466;2024-03-07T13:36:47;10.10;99.90
12460;DHT22;6295;49.452;8.466;2024-03-07T13:40:49;10.10;99.90
12460;DHT22;6295;49.452;8.466;2024-03-07T13:44:51;10.20;99.90
12460;DHT22;6295;49.452;8.466;2024-03-07T13:48:53;10.20;99.90
12460;DHT22;6295;49.452;8.466;2024-03-07T13:57:26;10.30;99.90
12460;DHT22;6295;49.452;8.466;2024-03-07T14:01:35;10.30;99.90
12460;DHT22;6295;49.452;8.466;2024-03-07T14:06:02;10.30;99.90
12460;DHT22;6295;49.452;8.466;2024-03-07T14:24:16;10.20;99.90
12460;DHT22;6295;49.452;8.466;2024-03-07T14:28:49;10.20;99.90
12460;DHT22;6295;49.452;8.466;2024-03-07T14:32:56;10.20;99.90
12460;DHT22;6295;49.452;8.466;2024-03-07T14:37:09;10.20;99.90
12460;DHT22;6295;49.452;8.466;2024-03-07T14:41:14;10.10;99.90
12460;DHT22;6295;49.452;8.466;2024-03-07T14:49:25;10.20;99.90
12460;DHT22;6295;49.452;8.466;2024-03-07T14:53:29;10.20;99.90
12460;DHT22;6295;49.452;8.466;2024-03-07T14:57:31;10.20;99.90
12460;DHT22;6295;49.452;8.466;2024-03-07T15:01:34;10.20;99.90
12460;DHT22;6295;49.452;8.466;2024-03-07T15:05:37;10.10;99.90
12460;DHT22;6295;49.452;8.466;2024-03-07T15:09:39;10.10;99.90
12460;DHT22;6295;49.452;8.466;2024-03-07T15:13:41;10.10;99.90
12460;DHT22;6295;49.452;8.466;2024-03-07T15:17:45;10.10;99.90
12460;DHT22;6295;49.452;8.466;2024-03-07T15:21:47;10.00;99.90
12460;DHT22;6295;49.452;8.466;2024-03-07T15:25:53;10.00;99.90
12460;DHT22;6295;49.452;8.466;2024-03-07T15:29:55;10.00;99.90
12460;DHT22;6295;49.452;8.466;2024-03-07T15:33:59;9.90;99.90
12460;DHT22;6295;49.452;8.466;2024-03-07T15:38:02;9.90;99.90
12460;DHT22;6295;49.452;8.466;2024-03-07T15:42:06;9.80;99.90
12460;DHT22;6295;49.452;8.466;2024-03-07T15:46:17;9.80;99.90
12460;DHT22;6295;49.452;8.466;2024-03-07T15:50:21;9.80;99.90
12460;DHT22;6295;49.452;8.466;2024-03-07T15:54:24;9.70;99.90
12460;DHT22;6295;49.452;8.466;2024-03-07T15:58:27;9.70;99.90
12460;DHT22;6295;49.452;8.466;2024-03-07T16:02:29;9.70;99.90
12460;DHT22;6295;49.452;8.466;2024-03-07T16:06:32;9.70;99.90
12460;DHT22;6295;49.452;8.466;2024-03-07T16:10:37;9.60;99.90
12460;DHT22;6295;49.452;8.466;2024-03-07T16:14:41;9.60;99.90
12460;DHT22;6295;49.452;8.466;2024-03-07T16:26:53;9.50;99.90
12460;DHT22;6295;49.452;8.466;2024-03-07T16:30:56;9.50;99.90
12460;DHT22;6295;49.452;8.466;2024-03-07T16:35:02;9.50;99.90
12460;DHT22;6295;49.452;8.466;2024-03-07T16:39:10;9.40;99.90
12460;DHT22;6295;49.452;8.466;2024-03-07T16:55:29;9.30;99.90
